CST,Max TemperatureF,Mean TemperatureF,Min TemperatureF,Max Dew PointF,MeanDew PointF,Min DewpointF,Max Humidity, Mean Humidity, Min Humidity, Max Sea Level PressureIn, Mean Sea Level PressureIn, Min Sea Level PressureIn, Max VisibilityMiles, Mean VisibilityMiles, Min VisibilityMiles, Max Wind SpeedMPH, Mean Wind SpeedMPH, Max Gust SpeedMPH,PrecipitationIn, CloudCover, Events, WindDirDegrees
2012-12-1,79,70,60,65,62,57,100,80,60,30.24,30.18,30.13,10,7,0,12,6,16,0.00,4,Fog,139
2012-12-2,81,69,57,68,62,57,100,79,58,30.25,30.18,30.14,10,5,0,15,7,20,0.00,5,Fog,118
2012-12-3,78,71,64,67,66,63,100,82,64,30.17,30.12,30.07,10,8,1,18,9,25,0.64,7,Rain,162
2012-12-4,79,71,62,70,65,59,93,86,79,30.21,30.15,30.09,10,9,1,21,5,28,0.29,7,Rain-Thunderstorm,165
2012-12-5,73,65,56,61,58,53,97,77,57,30.20,30.13,30.07,10,10,10,13,6,15,0.00,5,,25
2012-12-6,72,63,53,57,55,52,100,77,53,30.06,29.99,29.93,10,7,0,7,3,10,0.00,4,Fog,60
2012-12-7,76,65,53,63,57,52,100,84,68,29.99,29.93,29.87,10,5,0,13,5,16,0.00,6,Fog,144
2012-12-8,79,71,63,66,64,61,93,78,62,29.99,29.93,29.88,10,10,7,16,8,24,T,4,Rain,161
2012-12-9,80,71,61,70,66,60,100,84,67,29.97,29.91,29.87,10,7,0,16,7,23,0.00,3,Fog,167
2012-12-10,72,57,42,70,52,32,93,72,50,30.10,29.90,29.76,10,8,2,26,12,33,0.48,5,Rain-Thunderstorm,327
2012-12-11,55,46,37,32,30,29,76,57,38,30.23,30.15,30.10,10,10,10,16,7,21,0.00,0,,18
2012-12-12,59,47,35,34,30,20,89,56,23,30.37,30.31,30.25,10,10,10,13,5,15,0.00,0,,21
2012-12-13,62,47,32,37,30,26,85,55,25,30.41,30.33,30.27,10,10,10,15,4,18,0.00,0,,62
2012-12-14,66,53,40,56,48,33,93,77,61,30.28,30.16,30.04,10,10,10,17,8,20,0.00,5,,117
2012-12-15,77,68,59,66,63,56,97,83,69,30.03,29.98,29.93,10,10,10,17,8,25,T,7,Rain,160
2012-12-16,75,69,63,67,63,61,93,86,78,29.92,29.84,29.76,10,8,0,32,6,45,1.64,8,Fog-Rain-Thunderstorm,184
2012-12-17,72,59,45,62,55,39,100,66,31,29.97,29.85,29.80,10,7,0,13,4,20,0.00,3,Fog,290
2012-12-18,74,58,42,57,50,40,96,73,49,30.01,29.96,29.94,10,9,1,15,6,22,0.00,0,,164
2012-12-19,79,66,52,70,63,51,100,84,67,29.96,29.87,29.79,10,8,0,22,10,31,T,4,Fog,159
2012-12-20,72,56,39,70,43,18,93,60,26,30.43,30.06,29.78,10,8,2,37,14,49,0.04,4,Rain,285
2012-12-21,63,48,32,37,26,17,92,56,19,30.53,30.44,30.39,10,10,10,12,4,15,0.00,0,,337
2012-12-22,65,50,34,49,38,24,96,60,23,30.43,30.34,30.20,10,10,7,14,4,18,0.00,0,,152
2012-12-23,71,63,54,63,59,50,87,78,68,30.19,30.04,29.92,10,10,9,15,8,23,T,6,,182
2012-12-24,77,68,58,64,61,57,100,75,50,29.98,29.89,29.81,10,5,0,12,5,17,0.00,5,Fog,236
2012-12-25,74,58,41,67,57,32,93,69,44,29.96,29.70,29.54,10,8,1,26,12,37,0.32,6,Rain-Thunderstorm,207
2012-12-26,46,41,35,34,32,29,82,73,64,30.22,30.15,29.99,10,10,10,23,10,31,0.00,5,,343
2012-12-27,57,44,31,48,38,28,92,77,61,30.18,30.08,29.93,10,9,5,13,7,16,0.01,5,Rain,77
2012-12-28,68,57,45,66,56,36,93,82,71,30.12,29.85,29.77,10,6,0,24,13,32,1.40,8,Fog-Rain-Thunderstorm,260
2012-12-29,51,44,37,36,28,24,76,56,35,30.48,30.34,30.12,10,10,10,21,11,26,0.00,2,,345
2012-12-30,50,41,31,37,29,25,76,58,39,30.54,30.45,30.34,10,10,10,18,7,21,0.00,1,,78
2012-12-31,64,54,43,60,46,35,93,79,65,30.34,30.16,30.00,10,9,2,16,9,21,T,8,Rain,107